createdAt,value
2023-06-14T00:01:30.051Z,98464.31
2023-06-14T00:03:56.984Z,98464.84
2023-06-14T00:06:25.490Z,98468.06
2023-06-14T00:08:52.356Z,98466.19
2023-06-14T00:11:18.789Z,98468.06
2023-06-14T00:13:45.202Z,98466.69
2023-06-14T00:16:11.635Z,98466.19
2023-06-14T00:18:38.014Z,98463.75
2023-06-14T00:21:05.015Z,98471.78
2023-06-14T00:23:31.372Z,98471.78
2023-06-14T00:25:57.967Z,98470.44
2023-06-14T00:28:24.625Z,98473.09
2023-06-14T00:30:50.986Z,98471.50
2023-06-14T00:33:17.380Z,98474.69
2023-06-14T00:35:43.748Z,98482.69
2023-06-14T00:38:10.730Z,98472.81
2023-06-14T00:40:37.477Z,98478.69
2023-06-14T00:43:03.863Z,98481.09
2023-06-14T00:45:32.333Z,98480.28
2023-06-14T00:47:58.914Z,98486.69
2023-06-14T00:50:25.561Z,98483.47
2023-06-14T00:52:51.967Z,98486.94
2023-06-14T00:55:18.352Z,98482.94
2023-06-14T00:57:44.736Z,98480.78
2023-06-14T01:00:11.462Z,98480.25
2023-06-14T01:02:38.761Z,98476.53
2023-06-14T01:05:05.623Z,98477.59
2023-06-14T01:07:34.970Z,98484.53
2023-06-14T01:10:17.206Z,98486.63
2023-06-14T01:12:52.104Z,98487.47
2023-06-14T01:15:18.499Z,98478.09
2023-06-14T01:17:47.511Z,98482.13
2023-06-14T01:20:16.069Z,98483.16
2023-06-14T01:22:51.748Z,98480.25
2023-06-14T01:25:21.875Z,98477.28
2023-06-14T01:27:49.322Z,98474.91
2023-06-14T01:30:16.270Z,98478.06
2023-06-14T01:32:42.849Z,98470.88
2023-06-14T01:35:09.256Z,98472.19
2023-06-14T01:37:35.977Z,98479.38
2023-06-14T01:40:04.898Z,98470.34
2023-06-14T01:42:31.252Z,98470.59
2023-06-14T01:44:57.645Z,98479.38
2023-06-14T01:47:24.061Z,98472.16
2023-06-14T01:49:50.513Z,98481.75
2023-06-14T01:52:16.877Z,98487.63
2023-06-14T01:54:43.476Z,98487.91
2023-06-14T01:57:10.013Z,98482.56
2023-06-14T01:59:37.625Z,98482.00
2023-06-14T02:02:04.466Z,98485.22
2023-06-14T02:04:30.839Z,98485.22
2023-06-14T02:06:57.400Z,98490.00
2023-06-14T02:09:24.707Z,98481.47
2023-06-14T02:11:51.077Z,98491.34
2023-06-14T02:14:18.141Z,98491.88
2023-06-14T02:16:50.012Z,98493.22
2023-06-14T02:19:19.361Z,98487.34
2023-06-14T02:21:45.818Z,98487.06
2023-06-14T02:24:12.637Z,98488.69
2023-06-14T02:26:39.050Z,98499.59
2023-06-14T02:29:06.634Z,98503.59
2023-06-14T02:31:33.856Z,98498.53
2023-06-14T02:34:00.326Z,98500.94
2023-06-14T02:36:27.293Z,98506.78
2023-06-14T02:38:55.216Z,98503.00
2023-06-14T02:41:21.604Z,98504.38
2023-06-14T02:43:47.961Z,98499.84
2023-06-14T02:46:14.328Z,98503.03
2023-06-14T02:48:41.135Z,98495.59
2023-06-14T02:51:09.428Z,98493.22
2023-06-14T02:53:36.276Z,98496.69
2023-06-14T02:56:02.661Z,98496.66
2023-06-14T02:58:29.080Z,98503.88
2023-06-14T03:00:55.787Z,98506.53
2023-06-14T03:03:22.816Z,98510.78
2023-06-14T03:05:50.630Z,98514.53
2023-06-14T03:08:18.220Z,98517.72
2023-06-14T03:10:44.658Z,98516.13
2023-06-14T03:13:12.266Z,98517.19
2023-06-14T03:15:39.530Z,98523.31
2023-06-14T03:18:06.101Z,98520.63
2023-06-14T03:20:34.010Z,98526.19
2023-06-14T03:23:03.402Z,98526.47
2023-06-14T03:25:34.069Z,98522.44
2023-06-14T03:28:00.438Z,98514.97
2023-06-14T03:30:26.806Z,98521.09
2023-06-14T03:32:53.978Z,98517.09
2023-06-14T03:35:20.693Z,98526.41
2023-06-14T03:37:47.264Z,98525.63
2023-06-14T03:40:14.703Z,98529.34
2023-06-14T03:42:41.283Z,98529.06
2023-06-14T03:45:07.867Z,98532.25
2023-06-14T03:47:34.522Z,98529.06
2023-06-14T03:50:02.047Z,98529.06
2023-06-14T03:52:28.668Z,98529.84
2023-06-14T03:57:24.472Z,98531.22
2023-06-14T03:59:50.859Z,98537.91
2023-06-14T04:02:17.293Z,98541.63
2023-06-14T04:04:46.224Z,98540.81
2023-06-14T04:07:12.993Z,98542.16
2023-06-14T04:09:39.781Z,98548.84
2023-06-14T04:12:06.522Z,98549.13
2023-06-14T04:14:34.005Z,98558.75
2023-06-14T04:17:00.455Z,98562.50
2023-06-14T04:19:26.817Z,98559.56
2023-06-14T04:21:53.213Z,98558.22
2023-06-14T04:24:19.654Z,98564.38
2023-06-14T04:26:46.158Z,98567.31
2023-06-14T04:29:15.336Z,98566.81
2023-06-14T04:31:42.138Z,98571.09
2023-06-14T04:34:08.795Z,98574.56
2023-06-14T04:36:35.685Z,98580.72
2023-06-14T04:39:04.351Z,98579.41
2023-06-14T04:41:31.918Z,98583.97
2023-06-14T04:43:59.541Z,98586.13
2023-06-14T04:46:26.106Z,98590.91
2023-06-14T04:48:52.504Z,98593.59
2023-06-14T04:51:22.371Z,98593.09
2023-06-14T04:53:50.491Z,98592.59
2023-06-14T04:56:17.901Z,98592.06
2023-06-14T04:58:44.939Z,98595.00
2023-06-14T05:01:11.362Z,98599.00
2023-06-14T05:03:38.113Z,98597.69
2023-06-14T05:06:04.864Z,98599.28
2023-06-14T05:08:31.282Z,98595.28
2023-06-14T05:10:57.633Z,98594.50
2023-06-14T05:13:24.122Z,98606.53
2023-06-14T05:15:50.604Z,98603.34
2023-06-14T05:18:17.399Z,98596.44
2023-06-14T05:20:43.762Z,98606.56
2023-06-14T05:23:10.198Z,98606.84
2023-06-14T05:25:36.705Z,98610.31
2023-06-14T05:28:03.884Z,98610.34
2023-06-14T05:30:31.674Z,98605.56
2023-06-14T05:32:58.319Z,98606.38
2023-06-14T05:35:27.696Z,98607.97
2023-06-14T05:37:54.890Z,98606.91
2023-06-14T05:40:21.271Z,98613.06
2023-06-14T05:42:47.661Z,98608.00
2023-06-14T05:45:15.450Z,98612.81
2023-06-14T05:47:42.033Z,98616.81
2023-06-14T05:50:08.668Z,98613.88
2023-06-14T05:52:35.321Z,98622.16
2023-06-14T05:55:02.395Z,98628.84
2023-06-14T05:57:28.771Z,98625.09
2023-06-14T05:59:55.137Z,98625.91
2023-06-14T06:02:21.573Z,98626.47
2023-06-14T06:04:48.033Z,98618.97
2023-06-14T06:07:14.386Z,98631.81
2023-06-14T06:09:40.752Z,98632.63
2023-06-14T06:12:07.958Z,98633.41
2023-06-14T06:14:34.323Z,98637.16
2023-06-14T06:17:00.892Z,98648.13
2023-06-14T06:19:27.263Z,98641.44
2023-06-14T06:21:53.727Z,98642.00
2023-06-14T06:24:20.110Z,98642.00
2023-06-14T06:26:46.478Z,98645.47
2023-06-14T06:29:13.242Z,98640.91
2023-06-14T06:31:39.629Z,98650.25
2023-06-14T06:34:06.152Z,98654.00
2023-06-14T06:36:32.608Z,98644.69
2023-06-14T06:38:59.046Z,98659.09
2023-06-14T06:41:25.465Z,98655.88
2023-06-14T06:43:51.822Z,98661.22
2023-06-14T06:46:19.985Z,98659.09
2023-06-14T06:48:46.378Z,98655.38
2023-06-14T06:51:14.038Z,98658.06
2023-06-14T06:53:43.607Z,98655.94
2023-06-14T06:56:11.850Z,98662.63
2023-06-14T06:58:38.213Z,98665.81
2023-06-14T07:01:04.614Z,98667.69
2023-06-14T07:03:31.317Z,98659.28
2023-06-14T07:05:57.710Z,98669.63
2023-06-14T07:08:24.086Z,98664.25
2023-06-14T07:10:50.523Z,98666.38
2023-06-14T07:13:17.315Z,98667.69
2023-06-14T07:15:43.686Z,98669.59
2023-06-14T07:18:10.132Z,98671.38
2023-06-14T07:20:39.294Z,98672.72
2023-06-14T07:23:06.682Z,98681.22
2023-06-14T07:25:33.126Z,98675.09
2023-06-14T07:27:59.634Z,98673.78
2023-06-14T07:30:27.943Z,98674.75
2023-06-14T07:32:54.593Z,98672.56
2023-06-14T07:35:21.156Z,98672.19
2023-06-14T07:37:48.047Z,98676.00
2023-06-14T07:40:14.588Z,98677.59
2023-06-14T07:42:40.948Z,98680.75
2023-06-14T07:45:07.568Z,98676.78
2023-06-14T07:47:34.163Z,98683.19
2023-06-14T07:50:00.737Z,98689.59
2023-06-14T07:52:27.099Z,98691.66
2023-06-14T07:54:53.496Z,98686.69
2023-06-14T07:57:21.343Z,98697.59
2023-06-14T07:59:47.726Z,98698.13
2023-06-14T08:02:14.122Z,98704.25
2023-06-14T08:04:40.501Z,98702.97
2023-06-14T08:07:07.970Z,98703.38
2023-06-14T08:09:34.558Z,98695.41
2023-06-14T08:12:01.285Z,98701.34
2023-06-14T08:14:27.736Z,98699.75
2023-06-14T08:16:54.767Z,98693.91
2023-06-14T08:19:21.344Z,98697.91
2023-06-14T08:21:48.379Z,98694.19
2023-06-14T08:24:15.054Z,98697.41
2023-06-14T08:26:41.607Z,98689.94
2023-06-14T08:29:08.019Z,98693.16
2023-06-14T08:31:34.703Z,98695.28
2023-06-14T08:34:01.100Z,98702.53
2023-06-14T08:36:27.496Z,98704.41
2023-06-14T08:38:53.868Z,98705.44
2023-06-14T08:41:26.454Z,98711.28
2023-06-14T08:43:53.390Z,98710.22
2023-06-14T08:46:23.430Z,98696.06
2023-06-14T08:48:50.655Z,98697.66
2023-06-14T08:53:44.158Z,98695.56
2023-06-14T08:56:14.237Z,98698.22
2023-06-14T09:01:15.249Z,98695.84
2023-06-14T09:03:43.017Z,98708.13
2023-06-14T09:06:14.229Z,98703.59
2023-06-14T09:08:43.811Z,98705.19
2023-06-14T09:11:11.871Z,98715.06
2023-06-14T09:13:38.232Z,98706.00
2023-06-14T09:16:04.684Z,98706.78
2023-06-14T09:18:48.781Z,98715.63
2023-06-14T09:21:16.018Z,98710.81
2023-06-14T09:23:42.868Z,98709.22
2023-06-14T09:26:13.241Z,98716.44
2023-06-14T09:28:42.961Z,98714.56
2023-06-14T09:31:10.829Z,98714.56
2023-06-14T09:33:37.285Z,98719.63
2023-06-14T09:36:04.365Z,98707.09
2023-06-14T09:38:30.761Z,98714.03
2023-06-14T09:40:57.555Z,98724.69
2023-06-14T09:43:23.933Z,98720.19
2023-06-14T09:45:50.336Z,98721.78
2023-06-14T09:48:19.125Z,98720.72
2023-06-14T09:50:46.216Z,98720.72
2023-06-14T09:53:13.117Z,98726.84
2023-06-14T09:55:40.514Z,98721.53
2023-06-14T09:58:07.772Z,98707.38
2023-06-14T10:00:38.544Z,98718.03
2023-06-14T10:03:07.541Z,98715.66
2023-06-14T10:05:34.145Z,98705.47
2023-06-14T10:10:26.839Z,98712.34
2023-06-14T10:12:53.203Z,98709.97
2023-06-14T10:15:33.186Z,98717.66
2023-06-14T10:18:01.172Z,98714.22
2023-06-14T10:20:27.991Z,98713.97
2023-06-14T10:23:17.359Z,98706.69
2023-06-14T10:25:43.729Z,98702.09
2023-06-14T10:28:13.255Z,98711.22
2023-06-14T10:30:39.650Z,98709.06
2023-06-14T10:33:08.933Z,98706.91
2023-06-14T10:35:35.483Z,98709.34
2023-06-14T10:38:08.655Z,98709.06
2023-06-14T10:40:35.109Z,98698.16
2023-06-14T10:43:01.508Z,98705.06
2023-06-14T10:45:27.858Z,98710.16
2023-06-14T10:47:54.916Z,98703.22
2023-06-14T10:50:28.251Z,98697.94
2023-06-14T10:52:54.628Z,98697.16
2023-06-14T10:55:23.901Z,98695.53
2023-06-14T10:57:57.322Z,98696.81
2023-06-14T11:00:24.839Z,98693.31
2023-06-14T11:03:04.471Z,98693.09
2023-06-14T11:05:31.216Z,98688.28
2023-06-14T11:08:29.835Z,98693.88
2023-06-14T11:10:58.023Z,98695.47
2023-06-14T11:13:25.543Z,98689.91
2023-06-14T11:15:54.056Z,98681.63
2023-06-14T11:18:25.262Z,98694.69
2023-06-14T11:20:51.621Z,98690.38
2023-06-14T11:23:17.990Z,98689.09
2023-06-14T11:25:44.512Z,98690.97
2023-06-14T11:28:10.868Z,98679.50
2023-06-14T11:30:37.211Z,98686.75
2023-06-14T11:33:03.595Z,98689.44
2023-06-14T11:35:30.093Z,98693.19
2023-06-14T11:37:57.802Z,98688.06
2023-06-14T11:40:27.316Z,98688.84
2023-06-14T11:43:00.519Z,98673.63
2023-06-14T11:45:26.881Z,98689.97
2023-06-14T11:47:54.887Z,98681.94
2023-06-14T11:50:23.544Z,98677.16
2023-06-14T11:52:57.160Z,98674.22
2023-06-14T11:55:24.209Z,98668.06
2023-06-14T11:57:50.934Z,98679.81
2023-06-14T12:02:44.357Z,98668.59
2023-06-14T12:05:11.386Z,98683.53
2023-06-14T12:07:38.491Z,98685.16
2023-06-14T12:10:08.674Z,98671.84
2023-06-14T12:12:38.862Z,98671.53
2023-06-14T12:15:06.441Z,98667.50
2023-06-14T12:17:33.868Z,98677.66
2023-06-14T12:20:00.396Z,98681.94
2023-06-14T12:22:27.461Z,98675.25
2023-06-14T12:24:54.099Z,98680.03
2023-06-14T12:27:24.454Z,98677.63
2023-06-14T12:29:59.884Z,98675.47
2023-06-14T12:32:26.623Z,98675.47
2023-06-14T12:34:53.197Z,98672.59
2023-06-14T12:37:19.618Z,98666.97
2023-06-14T12:39:45.996Z,98673.41
2023-06-14T12:42:12.362Z,98674.19
2023-06-14T12:44:41.860Z,98673.41
2023-06-14T12:47:08.922Z,98669.66
2023-06-14T12:49:35.284Z,98669.38
2023-06-14T12:52:01.643Z,98669.63
2023-06-14T12:54:39.850Z,98669.66
2023-06-14T12:57:07.276Z,98669.16
2023-06-14T12:59:34.331Z,98668.09
2023-06-14T13:02:10.653Z,98679.06
2023-06-14T13:04:37.081Z,98665.44
2023-06-14T13:07:03.436Z,98666.19
2023-06-14T13:09:29.823Z,98673.69
2023-06-14T13:11:56.442Z,98657.63
2023-06-14T13:14:26.216Z,98668.63
2023-06-14T13:16:52.944Z,98669.69
2023-06-14T13:19:19.586Z,98668.38
2023-06-14T13:21:45.966Z,98663.28
2023-06-14T13:24:12.387Z,98666.78
2023-06-14T13:26:38.810Z,98657.91
2023-06-14T13:29:05.211Z,98667.50
2023-06-14T13:31:31.774Z,98675.00
2023-06-14T13:33:58.159Z,98678.78
2023-06-14T13:36:24.544Z,98670.75
2023-06-14T13:38:52.519Z,98668.56
2023-06-14T13:41:18.880Z,98671.75
2023-06-14T13:43:45.253Z,98666.19
2023-06-14T13:46:11.880Z,98660.59
2023-06-14T13:48:38.277Z,98670.78
2023-06-14T13:51:05.268Z,98664.13
2023-06-14T13:53:32.018Z,98663.34
2023-06-14T13:55:58.421Z,98663.59
2023-06-14T13:58:25.133Z,98655.34
2023-06-14T14:00:51.505Z,98650.53
2023-06-14T14:03:18.102Z,98647.34
2023-06-14T14:05:44.480Z,98635.31
2023-06-14T14:08:10.854Z,98641.22
2023-06-14T14:10:37.248Z,98651.16
2023-06-14T14:13:03.692Z,98644.72
2023-06-14T14:15:30.137Z,98653.81
2023-06-14T14:17:58.443Z,98657.00
2023-06-14T14:20:25.262Z,98654.34
2023-06-14T14:22:51.696Z,98642.59
2023-06-14T14:25:18.072Z,98649.56
2023-06-14T14:27:44.470Z,98656.75
2023-06-14T14:30:11.052Z,98656.22
2023-06-14T14:32:37.467Z,98658.63
2023-06-14T14:35:03.900Z,98651.69
2023-06-14T14:37:30.252Z,98645.00
2023-06-14T14:39:56.627Z,98647.13
2023-06-14T14:42:23.064Z,98644.72
2023-06-14T14:44:49.436Z,98651.16
2023-06-14T14:47:15.843Z,98646.31
2023-06-14T14:53:10.305Z,98647.38
2023-06-14T14:55:38.395Z,98650.03
2023-06-14T14:58:04.816Z,98647.91
2023-06-14T15:00:31.268Z,98647.13
2023-06-14T15:02:57.752Z,98639.91
2023-06-14T15:05:24.161Z,98646.06
2023-06-14T15:07:50.563Z,98647.41
2023-06-14T15:10:17.217Z,98642.84
2023-06-14T15:12:43.681Z,98642.59
2023-06-14T15:15:10.549Z,98645.25
2023-06-14T15:17:36.959Z,98651.69
2023-06-14T15:20:03.692Z,98647.91
2023-06-14T15:22:30.111Z,98655.13
2023-06-14T15:24:56.719Z,98647.38
2023-06-14T15:27:23.445Z,98649.00
2023-06-14T15:29:51.692Z,98641.53
2023-06-14T15:32:18.282Z,98632.97
2023-06-14T15:34:44.650Z,98646.84
2023-06-14T15:37:11.034Z,98648.47
2023-06-14T15:39:37.425Z,98650.59
2023-06-14T15:42:04.351Z,98652.47
2023-06-14T15:44:30.874Z,98649.78
2023-06-14T15:46:57.420Z,98642.28
2023-06-14T15:49:23.813Z,98636.13
2023-06-14T15:51:50.554Z,98631.59
2023-06-14T15:54:16.973Z,98633.47
2023-06-14T15:56:43.363Z,98627.88
2023-06-14T15:59:09.725Z,98629.78
2023-06-14T16:01:36.312Z,98620.69
2023-06-14T16:04:02.738Z,98631.38
2023-06-14T16:06:29.119Z,98629.78
2023-06-14T16:08:55.504Z,98638.59
2023-06-14T16:11:21.871Z,98639.38
2023-06-14T16:13:48.288Z,98648.19
2023-06-14T16:16:14.797Z,98651.16
2023-06-14T16:18:42.204Z,98648.47
2023-06-14T16:21:10.362Z,98643.13
2023-06-14T16:23:36.858Z,98653.28
2023-06-14T16:26:03.221Z,98654.84
2023-06-14T16:28:30.754Z,98650.06
2023-06-14T16:30:57.108Z,98651.69
2023-06-14T16:33:23.688Z,98643.16
2023-06-14T16:35:50.314Z,98636.22
2023-06-14T16:38:16.776Z,98647.69
2023-06-14T16:40:43.130Z,98652.75
2023-06-14T16:43:09.684Z,98641.78
2023-06-14T16:45:36.303Z,98652.75
2023-06-14T16:48:02.956Z,98644.75
2023-06-14T16:50:29.356Z,98653.28
2023-06-14T16:52:56.155Z,98651.16
2023-06-14T16:55:22.525Z,98653.81
2023-06-14T16:57:48.890Z,98653.81
2023-06-14T17:00:15.615Z,98657.00
2023-06-14T17:02:42.245Z,98659.69
2023-06-14T17:05:08.730Z,98662.88
2023-06-14T17:07:35.099Z,98669.56
2023-06-14T17:10:01.776Z,98671.66
2023-06-14T17:12:28.202Z,98662.59
2023-06-14T17:14:54.906Z,98666.88
2023-06-14T17:17:21.433Z,98672.22
2023-06-14T17:19:47.843Z,98668.19
2023-06-14T17:22:14.210Z,98670.59
2023-06-14T17:24:40.798Z,98667.66
2023-06-14T17:27:07.348Z,98668.72
2023-06-14T17:29:33.733Z,98668.16
2023-06-14T17:32:00.475Z,98672.41
2023-06-14T17:34:26.941Z,98668.94
2023-06-14T17:36:54.622Z,98679.63
2023-06-14T17:39:21.033Z,98672.97
2023-06-14T17:41:47.391Z,98669.75
2023-06-14T17:44:13.785Z,98677.72
2023-06-14T17:46:40.483Z,98677.47
2023-06-14T17:49:06.855Z,98678.78
2023-06-14T17:51:33.400Z,98673.72
2023-06-14T17:53:59.804Z,98670.75
2023-06-14T17:56:27.949Z,98671.03
2023-06-14T17:58:56.451Z,98667.00
2023-06-14T18:01:23.313Z,98668.31
2023-06-14T18:03:49.723Z,98679.25
2023-06-14T18:06:16.197Z,98671.81
2023-06-14T18:08:44.515Z,98668.59
2023-06-14T18:11:11.178Z,98672.31
2023-06-14T18:13:38.529Z,98672.00
2023-06-14T18:16:04.985Z,98671.75
2023-06-14T18:18:31.380Z,98666.94
2023-06-14T18:20:57.822Z,98673.34
2023-06-14T18:23:24.192Z,98668.78
2023-06-14T18:25:50.755Z,98676.19
2023-06-14T18:28:17.171Z,98677.50
2023-06-14T18:30:43.641Z,98683.38
2023-06-14T18:33:10.286Z,98670.50
2023-06-14T18:35:36.721Z,98676.59
2023-06-14T18:38:03.086Z,98673.41
2023-06-14T18:40:29.932Z,98684.81
2023-06-14T18:42:57.814Z,98677.41
2023-06-14T18:45:24.320Z,98675.31
2023-06-14T18:47:50.789Z,98683.31
2023-06-14T18:50:17.823Z,98679.56
2023-06-14T18:52:45.876Z,98683.00
2023-06-14T18:55:12.299Z,98676.19
2023-06-14T18:57:38.777Z,98677.56
2023-06-14T19:00:06.180Z,98670.31
2023-06-14T19:02:33.210Z,98671.44
2023-06-14T19:05:00.184Z,98675.44
2023-06-14T19:07:26.578Z,98671.94
2023-06-14T19:09:52.949Z,98678.09
2023-06-14T19:12:19.412Z,98679.13
2023-06-14T19:14:46.125Z,98678.09
2023-06-14T19:17:14.838Z,98682.34
2023-06-14T19:19:44.273Z,98678.34
2023-06-14T19:22:10.639Z,98684.41
2023-06-14T19:24:37.522Z,98683.84
2023-06-14T19:27:03.915Z,98691.78
2023-06-14T19:29:31.421Z,98688.06
2023-06-14T19:31:57.907Z,98695.25
2023-06-14T19:34:24.545Z,98692.06
2023-06-14T19:36:50.953Z,98687.03
2023-06-14T19:39:17.374Z,98696.03
2023-06-14T19:41:46.566Z,98700.31
2023-06-14T19:44:14.364Z,98701.09
2023-06-14T19:46:40.829Z,98705.78
2023-06-14T19:49:07.243Z,98710.09
2023-06-14T19:51:33.591Z,98707.41
2023-06-14T19:53:59.945Z,98705.50
2023-06-14T19:56:26.311Z,98710.50
2023-06-14T19:58:52.664Z,98706.66
2023-06-14T20:01:19.055Z,98708.84
2023-06-14T20:03:45.595Z,98717.09
2023-06-14T20:06:12.101Z,98719.78
2023-06-14T20:08:38.497Z,98716.34
2023-06-14T20:11:04.881Z,98717.72
2023-06-14T20:13:31.285Z,98716.66
2023-06-14T20:15:57.751Z,98723.34
2023-06-14T20:18:24.160Z,98721.47
2023-06-14T20:20:51.494Z,98731.91
2023-06-14T20:23:17.883Z,98723.91
2023-06-14T20:25:44.260Z,98728.44
2023-06-14T20:28:10.613Z,98732.97
2023-06-14T20:30:36.977Z,98731.34
2023-06-14T20:33:03.429Z,98739.34
2023-06-14T20:35:29.876Z,98731.34
2023-06-14T20:37:56.262Z,98731.59
2023-06-14T20:40:22.992Z,98735.09
2023-06-14T20:42:49.350Z,98734.00
2023-06-14T20:45:16.183Z,98730.31
2023-06-14T20:47:43.136Z,98736.44
2023-06-14T20:50:12.271Z,98735.38
2023-06-14T20:52:39.110Z,98736.44
2023-06-14T20:55:05.874Z,98739.34
2023-06-14T20:57:32.294Z,98733.78
2023-06-14T20:59:58.696Z,98739.13
2023-06-14T21:02:25.310Z,98739.69
2023-06-14T21:04:51.671Z,98734.34
2023-06-14T21:07:18.045Z,98734.34
2023-06-14T21:09:45.781Z,98737.81
2023-06-14T21:12:13.071Z,98734.88
2023-06-14T21:14:39.560Z,98734.06
2023-06-14T21:17:06.751Z,98730.34
2023-06-14T21:19:33.332Z,98735.69
2023-06-14T21:21:59.714Z,98734.59
2023-06-14T21:24:26.165Z,98738.34
2023-06-14T21:26:52.981Z,98726.59
2023-06-14T21:29:19.347Z,98727.66
2023-06-14T21:31:45.790Z,98722.06
2023-06-14T21:34:12.199Z,98719.66
2023-06-14T21:36:38.772Z,98721.53
2023-06-14T21:39:05.129Z,98725.00
2023-06-14T21:41:31.503Z,98718.88
2023-06-14T21:43:57.869Z,98718.88
2023-06-14T21:46:24.325Z,98728.75
2023-06-14T21:48:50.759Z,98720.75
2023-06-14T21:51:17.120Z,98733.28
2023-06-14T21:53:48.396Z,98718.88
2023-06-14T21:56:14.822Z,98723.41
2023-06-14T21:58:41.195Z,98723.94
2023-06-14T22:01:07.694Z,98723.41
2023-06-14T22:03:34.320Z,98724.19
2023-06-14T22:06:00.893Z,98723.41
2023-06-14T22:08:27.316Z,98717.00
2023-06-14T22:10:53.901Z,98725.00
2023-06-14T22:13:20.814Z,98722.91
2023-06-14T22:15:47.220Z,98722.06
2023-06-14T22:18:14.066Z,98723.94
2023-06-14T22:20:40.868Z,98724.75
2023-06-14T22:23:08.905Z,98730.91
2023-06-14T22:25:35.415Z,98722.91
2023-06-14T22:28:01.784Z,98729.84
2023-06-14T22:30:28.609Z,98731.72
2023-06-14T22:32:55.873Z,98731.44
2023-06-14T22:35:22.447Z,98737.84
2023-06-14T22:37:50.090Z,98735.97
2023-06-14T22:40:17.573Z,98735.19
2023-06-14T22:42:47.588Z,98735.19
2023-06-14T22:45:17.680Z,98738.63
2023-06-14T22:47:44.527Z,98730.63
2023-06-14T22:50:11.604Z,98732.50
2023-06-14T22:52:41.051Z,98737.84
2023-06-14T22:55:08.834Z,98729.03
2023-06-14T22:57:36.540Z,98723.09
2023-06-14T23:00:07.986Z,98733.31
2023-06-14T23:02:34.897Z,98725.31
2023-06-14T23:05:01.376Z,98729.84
2023-06-14T23:07:28.306Z,98730.63
2023-06-14T23:09:57.797Z,98722.63
2023-06-14T23:12:26.179Z,98730.63
2023-06-14T23:14:52.565Z,98724.50
2023-06-14T23:17:18.915Z,98725.31
2023-06-14T23:19:45.289Z,98726.09
2023-06-14T23:22:17.246Z,98730.63
2023-06-14T23:24:43.785Z,98729.56
2023-06-14T23:27:10.218Z,98734.38
2023-06-14T23:29:36.597Z,98731.72
2023-06-14T23:32:03.197Z,98727.41
2023-06-14T23:34:34.870Z,98735.41
2023-06-14T23:37:02.702Z,98734.38
2023-06-14T23:39:29.138Z,98725.00
2023-06-14T23:41:56.663Z,98733.00
2023-06-14T23:44:25.285Z,98733.00
2023-06-14T23:46:57.559Z,98735.41
2023-06-14T23:49:24.531Z,98730.34
2023-06-14T23:51:52.287Z,98737.28
2023-06-14T23:54:18.988Z,98735.69
2023-06-14T23:56:49.316Z,98733.00
2023-06-14T23:59:15.981Z,98738.06
